sensor_id;sensor_type;location;lat;lon;timestamp;pressure;altitude;pressure_sealevel;temperature;humidity
58534;BME280;44109;52.398;7.024;2022-09-13T00:01:43;100748.47;;;19.51;78.67
58534;BME280;44109;52.398;7.024;2022-09-13T00:04:11;100754.47;;;19.54;78.79
58534;BME280;44109;52.398;7.024;2022-09-13T00:06:38;100747.63;;;19.55;78.71
58534;BME280;44109;52.398;7.024;2022-09-13T00:09:07;100748.41;;;19.55;78.66
58534;BME280;44109;52.398;7.024;2022-09-13T00:11:35;100748.75;;;19.57;78.46
58534;BME280;44109;52.398;7.024;2022-09-13T00:14:02;100741.56;;;19.56;78.37
58534;BME280;44109;52.398;7.024;2022-09-13T00:16:30;100743.94;;;19.58;78.44
58534;BME280;44109;52.398;7.024;2022-09-13T00:18:58;100744.66;;;19.42;77.88
58534;BME280;44109;52.398;7.024;2022-09-13T00:21:26;100748.13;;;19.49;78.01
58534;BME280;44109;52.398;7.024;2022-09-13T00:23:54;100742.34;;;19.57;78.30
58534;BME280;44109;52.398;7.024;2022-09-13T00:26:24;100732.63;;;19.61;78.42
58534;BME280;44109;52.398;7.024;2022-09-13T00:28:55;100729.75;;;19.65;78.73
58534;BME280;44109;52.398;7.024;2022-09-13T00:31:26;100728.88;;;19.68;78.71
58534;BME280;44109;52.398;7.024;2022-09-13T00:33:57;100716.91;;;19.64;78.46
58534;BME280;44109;52.398;7.024;2022-09-13T00:36:25;100720.78;;;19.70;78.57
58534;BME280;44109;52.398;7.024;2022-09-13T00:38:52;100715.53;;;19.72;78.65
58534;BME280;44109;52.398;7.024;2022-09-13T00:41:20;100711.63;;;19.66;78.33
58534;BME280;44109;52.398;7.024;2022-09-13T00:43:54;100711.94;;;19.71;78.62
58534;BME280;44109;52.398;7.024;2022-09-13T00:46:28;100708.75;;;19.69;78.74
58534;BME280;44109;52.398;7.024;2022-09-13T00:49:07;100712.56;;;19.59;78.42
58534;BME280;44109;52.398;7.024;2022-09-13T00:51:42;100721.28;;;19.25;77.68
58534;BME280;44109;52.398;7.024;2022-09-13T00:54:15;100733.31;;;18.82;78.02
58534;BME280;44109;52.398;7.024;2022-09-13T00:56:52;100723.28;;;19.05;78.23
58534;BME280;44109;52.398;7.024;2022-09-13T00:59:27;100716.44;;;19.25;76.84
58534;BME280;44109;52.398;7.024;2022-09-13T01:02:00;100721.50;;;19.54;77.90
58534;BME280;44109;52.398;7.024;2022-09-13T01:04:31;100723.22;;;19.28;76.97
58534;BME280;44109;52.398;7.024;2022-09-13T01:07:06;100723.00;;;19.19;77.27
58534;BME280;44109;52.398;7.024;2022-09-13T01:09:40;100716.09;;;19.43;77.57
58534;BME280;44109;52.398;7.024;2022-09-13T01:12:14;100718.97;;;19.60;77.93
58534;BME280;44109;52.398;7.024;2022-09-13T01:14:52;100717.31;;;19.42;76.77
58534;BME280;44109;52.398;7.024;2022-09-13T01:17:21;100732.63;;;19.41;76.99
58534;BME280;44109;52.398;7.024;2022-09-13T01:19:49;100733.97;;;19.33;77.02
58534;BME280;44109;52.398;7.024;2022-09-13T01:26:40;100729.28;;;19.46;77.35
58534;BME280;44109;52.398;7.024;2022-09-13T01:33:15;100723.16;;;19.51;77.81
58534;BME280;44109;52.398;7.024;2022-09-13T01:36:08;100718.78;;;19.31;76.55
58534;BME280;44109;52.398;7.024;2022-09-13T01:38:55;100717.66;;;19.05;77.33
58534;BME280;44109;52.398;7.024;2022-09-13T01:41:39;100711.13;;;19.31;77.71
58534;BME280;44109;52.398;7.024;2022-09-13T01:44:26;100713.72;;;19.42;78.37
58534;BME280;44109;52.398;7.024;2022-09-13T01:47:02;100712.47;;;19.23;78.55
58534;BME280;44109;52.398;7.024;2022-09-13T01:49:45;100708.44;;;19.24;78.66
58534;BME280;44109;52.398;7.024;2022-09-13T01:52:24;100711.97;;;19.28;79.10
58534;BME280;44109;52.398;7.024;2022-09-13T01:55:05;100699.28;;;19.20;79.52
58534;BME280;44109;52.398;7.024;2022-09-13T01:57:42;100700.84;;;19.21;79.58
58534;BME280;44109;52.398;7.024;2022-09-13T02:00:17;100704.19;;;19.16;79.80
58534;BME280;44109;52.398;7.024;2022-09-13T02:02:48;100707.56;;;19.07;79.63
58534;BME280;44109;52.398;7.024;2022-09-13T02:05:24;100685.28;;;18.96;79.77
58534;BME280;44109;52.398;7.024;2022-09-13T02:08:01;100698.97;;;18.94;79.99
58534;BME280;44109;52.398;7.024;2022-09-13T02:10:37;100698.91;;;18.74;80.46
58534;BME280;44109;52.398;7.024;2022-09-13T02:13:12;100684.56;;;18.69;80.48
58534;BME280;44109;52.398;7.024;2022-09-13T02:15:46;100690.19;;;18.69;80.76
58534;BME280;44109;52.398;7.024;2022-09-13T02:18:20;100694.81;;;18.56;81.43
58534;BME280;44109;52.398;7.024;2022-09-13T02:20:52;100692.44;;;18.54;81.34
58534;BME280;44109;52.398;7.024;2022-09-13T02:23:33;100692.50;;;18.50;81.55
58534;BME280;44109;52.398;7.024;2022-09-13T02:26:05;100691.31;;;18.48;81.99
58534;BME280;44109;52.398;7.024;2022-09-13T02:28:37;100691.41;;;18.44;82.10
58534;BME280;44109;52.398;7.024;2022-09-13T02:31:11;100682.16;;;18.44;82.51
58534;BME280;44109;52.398;7.024;2022-09-13T02:33:47;100690.66;;;18.40;83.27
58534;BME280;44109;52.398;7.024;2022-09-13T02:36:22;100699.09;;;18.40;83.30
58534;BME280;44109;52.398;7.024;2022-09-13T02:38:55;100685.41;;;18.42;83.38
58534;BME280;44109;52.398;7.024;2022-09-13T02:41:33;100698.94;;;18.47;83.50
58534;BME280;44109;52.398;7.024;2022-09-13T02:44:08;100695.66;;;18.52;83.61
58534;BME280;44109;52.398;7.024;2022-09-13T02:46:51;100681.56;;;18.56;83.72
58534;BME280;44109;52.398;7.024;2022-09-13T02:49:34;100683.81;;;18.65;83.76
58534;BME280;44109;52.398;7.024;2022-09-13T02:52:23;100690.19;;;18.69;83.68
58534;BME280;44109;52.398;7.024;2022-09-13T02:55:11;100685.75;;;18.71;83.52
58534;BME280;44109;52.398;7.024;2022-09-13T02:57:51;100680.47;;;18.73;83.63
58534;BME280;44109;52.398;7.024;2022-09-13T03:00:26;100683.59;;;18.79;83.52
58534;BME280;44109;52.398;7.024;2022-09-13T03:02:57;100683.09;;;18.84;83.44
58534;BME280;44109;52.398;7.024;2022-09-13T03:05:31;100687.50;;;18.85;83.34
58534;BME280;44109;52.398;7.024;2022-09-13T03:07:59;100678.56;;;18.90;83.26
58534;BME280;44109;52.398;7.024;2022-09-13T03:10:32;100673.69;;;18.94;83.00
58534;BME280;44109;52.398;7.024;2022-09-13T03:16:18;100678.28;;;19.05;82.64
58534;BME280;44109;52.398;7.024;2022-09-13T03:19:16;100685.44;;;19.09;82.60
58534;BME280;44109;52.398;7.024;2022-09-13T03:22:05;100686.28;;;19.06;82.60
58534;BME280;44109;52.398;7.024;2022-09-13T03:24:49;100678.28;;;19.05;82.48
58534;BME280;44109;52.398;7.024;2022-09-13T03:27:34;100682.56;;;19.13;82.62
58534;BME280;44109;52.398;7.024;2022-09-13T03:30:11;100688.53;;;19.15;82.56
58534;BME280;44109;52.398;7.024;2022-09-13T03:32:45;100688.47;;;19.18;82.67
58534;BME280;44109;52.398;7.024;2022-09-13T03:35:24;100686.44;;;19.19;82.56
58534;BME280;44109;52.398;7.024;2022-09-13T03:38:00;100687.53;;;19.25;82.58
58534;BME280;44109;52.398;7.024;2022-09-13T03:40:39;100690.28;;;19.29;82.44
58534;BME280;44109;52.398;7.024;2022-09-13T03:43:12;100686.59;;;19.32;82.04
58534;BME280;44109;52.398;7.024;2022-09-13T03:45:47;100689.34;;;19.35;82.14
58534;BME280;44109;52.398;7.024;2022-09-13T03:48:18;100687.31;;;19.36;82.07
58534;BME280;44109;52.398;7.024;2022-09-13T03:50:47;100678.88;;;19.36;82.12
58534;BME280;44109;52.398;7.024;2022-09-13T03:53:21;100684.41;;;19.39;81.95
58534;BME280;44109;52.398;7.024;2022-09-13T03:55:52;100680.41;;;19.40;82.14
58534;BME280;44109;52.398;7.024;2022-09-13T03:58:20;100681.91;;;19.45;82.22
58534;BME280;44109;52.398;7.024;2022-09-13T04:00:49;100671.00;;;19.47;82.16
58534;BME280;44109;52.398;7.024;2022-09-13T04:03:18;100671.72;;;19.51;81.96
58534;BME280;44109;52.398;7.024;2022-09-13T04:05:45;100669.69;;;19.51;81.94
58534;BME280;44109;52.398;7.024;2022-09-13T04:08:13;100665.22;;;19.54;81.92
58534;BME280;44109;52.398;7.024;2022-09-13T04:10:41;100661.63;;;19.54;81.79
58534;BME280;44109;52.398;7.024;2022-09-13T04:13:09;100662.75;;;19.56;81.65
58534;BME280;44109;52.398;7.024;2022-09-13T04:15:36;100663.56;;;19.57;81.55
58534;BME280;44109;52.398;7.024;2022-09-13T04:18:04;100664.31;;;19.61;81.52
58534;BME280;44109;52.398;7.024;2022-09-13T04:20:31;100673.13;;;19.63;81.56
58534;BME280;44109;52.398;7.024;2022-09-13T04:23:00;100684.50;;;19.56;81.53
58534;BME280;44109;52.398;7.024;2022-09-13T04:25:28;100685.19;;;19.60;81.78
58534;BME280;44109;52.398;7.024;2022-09-13T04:27:57;100680.31;;;19.64;81.80
58534;BME280;44109;52.398;7.024;2022-09-13T04:30:25;100672.75;;;19.61;81.75
58534;BME280;44109;52.398;7.024;2022-09-13T04:32:53;100682.63;;;19.69;81.83
58534;BME280;44109;52.398;7.024;2022-09-13T04:35:24;100682.19;;;19.70;81.88
58534;BME280;44109;52.398;7.024;2022-09-13T04:37:54;100681.75;;;19.72;81.86
58534;BME280;44109;52.398;7.024;2022-09-13T04:40:23;100678.94;;;19.72;81.73
58534;BME280;44109;52.398;7.024;2022-09-13T04:42:50;100672.94;;;19.70;81.78
58534;BME280;44109;52.398;7.024;2022-09-13T04:45:19;100685.72;;;19.74;81.59
58534;BME280;44109;52.398;7.024;2022-09-13T04:47:50;100678.22;;;19.68;81.50
58534;BME280;44109;52.398;7.024;2022-09-13T04:50:18;100685.38;;;19.72;81.63
58534;BME280;44109;52.398;7.024;2022-09-13T04:52:46;100692.91;;;19.75;81.54
58534;BME280;44109;52.398;7.024;2022-09-13T04:55:14;100687.28;;;19.75;81.56
58534;BME280;44109;52.398;7.024;2022-09-13T04:57:42;100695.31;;;19.77;81.69
58534;BME280;44109;52.398;7.024;2022-09-13T05:00:10;100687.22;;;19.79;81.55
58534;BME280;44109;52.398;7.024;2022-09-13T05:02:39;100685.97;;;19.80;81.58
58534;BME280;44109;52.398;7.024;2022-09-13T05:05:07;100673.50;;;19.81;81.52
58534;BME280;44109;52.398;7.024;2022-09-13T05:07:35;100681.16;;;19.81;81.53
58534;BME280;44109;52.398;7.024;2022-09-13T05:10:03;100682.38;;;19.80;81.40
58534;BME280;44109;52.398;7.024;2022-09-13T05:12:31;100690.41;;;19.81;81.41
58534;BME280;44109;52.398;7.024;2022-09-13T05:14:58;100677.53;;;19.80;81.70
58534;BME280;44109;52.398;7.024;2022-09-13T05:17:28;100689.16;;;19.82;81.53
58534;BME280;44109;52.398;7.024;2022-09-13T05:19:57;100690.41;;;19.81;81.64
58534;BME280;44109;52.398;7.024;2022-09-13T05:22:24;100681.84;;;19.85;81.72
58534;BME280;44109;52.398;7.024;2022-09-13T05:24:52;100695.50;;;19.86;81.59
58534;BME280;44109;52.398;7.024;2022-09-13T05:27:19;100690.59;;;19.90;81.74
58534;BME280;44109;52.398;7.024;2022-09-13T05:29:47;100685.69;;;19.94;81.78
58534;BME280;44109;52.398;7.024;2022-09-13T05:32:14;100681.09;;;20.00;81.86
58534;BME280;44109;52.398;7.024;2022-09-13T05:34:42;100678.63;;;20.02;81.81
58534;BME280;44109;52.398;7.024;2022-09-13T05:37:11;100689.91;;;20.02;81.64
58534;BME280;44109;52.398;7.024;2022-09-13T05:39:38;100694.22;;;20.07;81.65
58534;BME280;44109;52.398;7.024;2022-09-13T05:42:06;100692.22;;;20.08;81.76
58534;BME280;44109;52.398;7.024;2022-09-13T05:44:33;100695.38;;;20.10;81.71
58534;BME280;44109;52.398;7.024;2022-09-13T05:47:01;100672.47;;;19.91;81.57
58534;BME280;44109;52.398;7.024;2022-09-13T05:49:28;100696.09;;;20.14;81.72
58534;BME280;44109;52.398;7.024;2022-09-13T05:51:56;100697.59;;;20.18;81.90
58534;BME280;44109;52.398;7.024;2022-09-13T05:54:25;100687.03;;;20.22;81.86
58534;BME280;44109;52.398;7.024;2022-09-13T05:56:52;100692.59;;;20.26;81.74
58534;BME280;44109;52.398;7.024;2022-09-13T05:59:22;100704.63;;;20.26;81.62
58534;BME280;44109;52.398;7.024;2022-09-13T06:01:50;100705.59;;;20.20;81.63
58534;BME280;44109;52.398;7.024;2022-09-13T06:04:17;100704.72;;;20.23;81.31
58534;BME280;44109;52.398;7.024;2022-09-13T06:06:45;100701.72;;;20.30;81.83
58534;BME280;44109;52.398;7.024;2022-09-13T06:09:12;100704.16;;;20.12;81.00
58534;BME280;44109;52.398;7.024;2022-09-13T06:11:41;100698.44;;;19.99;81.43
58534;BME280;44109;52.398;7.024;2022-09-13T06:14:09;100704.50;;;19.97;81.34
58534;BME280;44109;52.398;7.024;2022-09-13T06:16:36;100712.75;;;19.88;81.94
58534;BME280;44109;52.398;7.024;2022-09-13T06:19:04;100716.25;;;19.76;81.78
58534;BME280;44109;52.398;7.024;2022-09-13T06:21:31;100715.22;;;19.86;81.83
58534;BME280;44109;52.398;7.024;2022-09-13T06:26:27;100705.59;;;20.04;81.05
58534;BME280;44109;52.398;7.024;2022-09-13T06:28:56;100706.78;;;20.02;81.57
58534;BME280;44109;52.398;7.024;2022-09-13T06:31:25;100713.31;;;20.16;80.46
58534;BME280;44109;52.398;7.024;2022-09-13T06:33:55;100723.47;;;20.13;80.96
58534;BME280;44109;52.398;7.024;2022-09-13T06:36:25;100723.38;;;20.17;79.78
58534;BME280;44109;52.398;7.024;2022-09-13T06:38:53;100727.41;;;20.16;79.76
58534;BME280;44109;52.398;7.024;2022-09-13T06:41:23;100717.31;;;20.18;79.13
58534;BME280;44109;52.398;7.024;2022-09-13T06:43:53;100723.91;;;20.28;79.98
58534;BME280;44109;52.398;7.024;2022-09-13T06:46:24;100732.09;;;20.22;79.43
58534;BME280;44109;52.398;7.024;2022-09-13T06:48:53;100723.28;;;20.20;79.46
58534;BME280;44109;52.398;7.024;2022-09-13T06:51:23;100725.50;;;20.29;79.08
58534;BME280;44109;52.398;7.024;2022-09-13T06:53:52;100731.28;;;20.06;80.14
58534;BME280;44109;52.398;7.024;2022-09-13T06:58:53;100711.84;;;20.27;80.20
58534;BME280;44109;52.398;7.024;2022-09-13T07:01:25;100720.91;;;20.19;79.89
58534;BME280;44109;52.398;7.024;2022-09-13T07:03:58;100721.44;;;20.14;80.24
58534;BME280;44109;52.398;7.024;2022-09-13T07:06:29;100719.63;;;19.87;81.71
58534;BME280;44109;52.398;7.024;2022-09-13T07:09:00;100731.28;;;20.06;81.09
58534;BME280;44109;52.398;7.024;2022-09-13T07:11:30;100729.50;;;19.95;82.12
58534;BME280;44109;52.398;7.024;2022-09-13T07:14:00;100697.84;;;19.71;82.90
58534;BME280;44109;52.398;7.024;2022-09-13T07:16:30;100724.00;;;19.88;84.64
58534;BME280;44109;52.398;7.024;2022-09-13T07:19:00;100718.75;;;19.70;85.68
58534;BME280;44109;52.398;7.024;2022-09-13T07:21:31;100731.09;;;19.57;86.83
58534;BME280;44109;52.398;7.024;2022-09-13T07:24:00;100723.09;;;19.75;86.82
58534;BME280;44109;52.398;7.024;2022-09-13T07:26:27;100738.28;;;19.97;86.25
58534;BME280;44109;52.398;7.024;2022-09-13T07:28:58;100739.00;;;20.01;85.87
58534;BME280;44109;52.398;7.024;2022-09-13T07:31:31;100742.88;;;19.71;86.80
58534;BME280;44109;52.398;7.024;2022-09-13T07:34:01;100746.69;;;19.81;87.18
58534;BME280;44109;52.398;7.024;2022-09-13T07:36:32;100749.91;;;19.99;86.74
58534;BME280;44109;52.398;7.024;2022-09-13T07:39:02;100740.75;;;19.56;89.92
58534;BME280;44109;52.398;7.024;2022-09-13T07:41:31;100756.56;;;19.49;90.78
58534;BME280;44109;52.398;7.024;2022-09-13T07:44:02;100755.22;;;19.14;93.35
58534;BME280;44109;52.398;7.024;2022-09-13T07:46:32;100763.88;;;19.04;94.18
58534;BME280;44109;52.398;7.024;2022-09-13T07:49:01;100767.88;;;19.26;95.16
58534;BME280;44109;52.398;7.024;2022-09-13T07:51:30;100765.13;;;19.42;94.18
58534;BME280;44109;52.398;7.024;2022-09-13T07:54:01;100759.44;;;19.26;95.33
58534;BME280;44109;52.398;7.024;2022-09-13T07:56:31;100758.38;;;19.60;95.27
58534;BME280;44109;52.398;7.024;2022-09-13T07:59:03;100758.38;;;19.60;94.92
58534;BME280;44109;52.398;7.024;2022-09-13T08:01:34;100750.25;;;20.01;93.55
58534;BME280;44109;52.398;7.024;2022-09-13T08:04:04;100758.31;;;19.83;94.52
58534;BME280;44109;52.398;7.024;2022-09-13T08:06:34;100760.50;;;20.12;93.09
58534;BME280;44109;52.398;7.024;2022-09-13T08:09:05;100763.09;;;20.39;91.41
58534;BME280;44109;52.398;7.024;2022-09-13T08:11:36;100769.69;;;20.32;92.05
58534;BME280;44109;52.398;7.024;2022-09-13T08:14:08;100774.41;;;20.19;91.40
58534;BME280;44109;52.398;7.024;2022-09-13T08:16:38;100765.06;;;20.74;90.44
58534;BME280;44109;52.398;7.024;2022-09-13T08:19:09;100770.47;;;20.69;88.60
58534;BME280;44109;52.398;7.024;2022-09-13T08:21:39;100769.22;;;20.54;89.23
58534;BME280;44109;52.398;7.024;2022-09-13T08:24:12;100781.56;;;20.76;89.35
58534;BME280;44109;52.398;7.024;2022-09-13T08:26:41;100769.38;;;20.95;88.04
58534;BME280;44109;52.398;7.024;2022-09-13T08:29:12;100772.22;;;20.79;86.88
58534;BME280;44109;52.398;7.024;2022-09-13T08:31:41;100778.19;;;20.97;87.36
58534;BME280;44109;52.398;7.024;2022-09-13T08:34:10;100780.69;;;21.24;85.51
58534;BME280;44109;52.398;7.024;2022-09-13T08:36:39;100778.44;;;21.36;84.70
58534;BME280;44109;52.398;7.024;2022-09-13T08:39:08;100790.97;;;20.69;87.34
58534;BME280;44109;52.398;7.024;2022-09-13T08:42:00;100789.84;;;20.67;85.59
58534;BME280;44109;52.398;7.024;2022-09-13T08:44:42;100793.34;;;20.87;86.83
58534;BME280;44109;52.398;7.024;2022-09-13T08:47:39;100789.84;;;20.67;84.78
58534;BME280;44109;52.398;7.024;2022-09-13T08:50:13;100792.03;;;20.75;86.27
58534;BME280;44109;52.398;7.024;2022-09-13T08:52:48;100782.25;;;20.96;84.95
58534;BME280;44109;52.398;7.024;2022-09-13T08:55:32;100781.72;;;21.01;84.89
58534;BME280;44109;52.398;7.024;2022-09-13T08:58:22;100788.47;;;21.20;84.69
58534;BME280;44109;52.398;7.024;2022-09-13T09:01:07;100786.81;;;21.07;84.97
58534;BME280;44109;52.398;7.024;2022-09-13T09:03:50;100781.03;;;20.81;84.74
58534;BME280;44109;52.398;7.024;2022-09-13T09:06:24;100793.03;;;20.85;84.09
58534;BME280;44109;52.398;7.024;2022-09-13T09:08:56;100792.53;;;21.19;84.09
58534;BME280;44109;52.398;7.024;2022-09-13T09:11:32;100782.78;;;21.08;82.76
58534;BME280;44109;52.398;7.024;2022-09-13T09:14:07;100777.06;;;20.95;84.26
58534;BME280;44109;52.398;7.024;2022-09-13T09:16:47;100773.94;;;21.22;82.03
58534;BME280;44109;52.398;7.024;2022-09-13T09:19:22;100780.69;;;21.24;82.45
58534;BME280;44109;52.398;7.024;2022-09-13T09:21:56;100782.63;;;21.73;80.44
58534;BME280;44109;52.398;7.024;2022-09-13T09:24:24;100784.53;;;22.18;79.09
58534;BME280;44109;52.398;7.024;2022-09-13T09:26:52;100775.72;;;22.28;79.01
58534;BME280;44109;52.398;7.024;2022-09-13T09:29:25;100777.53;;;22.48;76.73
58534;BME280;44109;52.398;7.024;2022-09-13T09:32:06;100771.22;;;22.44;77.40
58534;BME280;44109;52.398;7.024;2022-09-13T09:34:55;100783.19;;;22.35;75.18
58534;BME280;44109;52.398;7.024;2022-09-13T09:37:38;100784.56;;;21.76;76.27
58534;BME280;44109;52.398;7.024;2022-09-13T09:40:12;100785.91;;;21.71;76.39
58534;BME280;44109;52.398;7.024;2022-09-13T09:42:43;100785.66;;;21.78;77.61
58534;BME280;44109;52.398;7.024;2022-09-13T09:45:23;100788.09;;;21.35;76.79
58534;BME280;44109;52.398;7.024;2022-09-13T09:47:58;100777.53;;;21.68;77.16
58534;BME280;44109;52.398;7.024;2022-09-13T09:50:33;100781.44;;;21.99;76.82
58534;BME280;44109;52.398;7.024;2022-09-13T09:53:07;100781.25;;;22.19;73.94
58534;BME280;44109;52.398;7.024;2022-09-13T09:55:41;100799.81;;;21.91;73.84
58534;BME280;44109;52.398;7.024;2022-09-13T09:58:14;100794.97;;;21.50;76.37
58534;BME280;44109;52.398;7.024;2022-09-13T10:00:51;100783.66;;;21.05;78.26
58534;BME280;44109;52.398;7.024;2022-09-13T10:03:24;100797.31;;;21.51;76.37
58534;BME280;44109;52.398;7.024;2022-09-13T10:06:04;100791.19;;;21.40;78.08
58534;BME280;44109;52.398;7.024;2022-09-13T10:08:34;100780.81;;;21.79;76.74
58534;BME280;44109;52.398;7.024;2022-09-13T10:11:04;100781.44;;;21.99;74.64
58534;BME280;44109;52.398;7.024;2022-09-13T10:13:33;100779.78;;;22.27;73.59
58534;BME280;44109;52.398;7.024;2022-09-13T10:16:04;100787.34;;;22.82;70.17
58534;BME280;44109;52.398;7.024;2022-09-13T10:18:51;100778.31;;;21.68;73.38
58534;BME280;44109;52.398;7.024;2022-09-13T10:21:23;100786.75;;;22.10;71.70
58534;BME280;44109;52.398;7.024;2022-09-13T10:24:16;100781.94;;;22.23;73.17
58534;BME280;44109;52.398;7.024;2022-09-13T10:26:47;100793.13;;;22.14;72.69
58534;BME280;44109;52.398;7.024;2022-09-13T10:29:15;100793.38;;;22.45;70.37
58534;BME280;44109;52.398;7.024;2022-09-13T10:31:46;100786.25;;;22.53;70.70
58534;BME280;44109;52.398;7.024;2022-09-13T10:34:21;100790.66;;;22.42;69.63
58534;BME280;44109;52.398;7.024;2022-09-13T10:36:56;100775.03;;;22.37;69.07
58534;BME280;44109;52.398;7.024;2022-09-13T10:39:27;100781.53;;;21.96;70.00
58534;BME280;44109;52.398;7.024;2022-09-13T10:42:00;100769.28;;;22.28;69.86
58534;BME280;44109;52.398;7.024;2022-09-13T10:44:33;100771.31;;;22.53;68.90
58534;BME280;44109;52.398;7.024;2022-09-13T10:47:11;100767.38;;;23.11;66.85
58534;BME280;44109;52.398;7.024;2022-09-13T10:49:49;100771.75;;;22.51;68.05
58534;BME280;44109;52.398;7.024;2022-09-13T10:52:30;100767.69;;;22.52;67.85
58534;BME280;44109;52.398;7.024;2022-09-13T10:58:17;100769.06;;;22.35;66.59
58534;BME280;44109;52.398;7.024;2022-09-13T11:04:18;100772.22;;;22.63;64.23
58534;BME280;44109;52.398;7.024;2022-09-13T11:10:35;100767.50;;;23.42;62.56
58534;BME280;44109;52.398;7.024;2022-09-13T11:13:18;100765.78;;;22.62;62.58
58534;BME280;44109;52.398;7.024;2022-09-13T11:16:00;100761.09;;;22.81;62.88
58534;BME280;44109;52.398;7.024;2022-09-13T11:18:54;100757.47;;;23.28;62.67
58534;BME280;44109;52.398;7.024;2022-09-13T11:21:58;100769.53;;;23.41;60.11
58534;BME280;44109;52.398;7.024;2022-09-13T11:24:54;100771.38;;;23.57;60.16
58534;BME280;44109;52.398;7.024;2022-09-13T11:27:46;100760.44;;;23.46;61.24
58534;BME280;44109;52.398;7.024;2022-09-13T11:30:23;100755.31;;;22.97;62.05
58534;BME280;44109;52.398;7.024;2022-09-13T11:33:23;100767.09;;;22.70;64.21
58534;BME280;44109;52.398;7.024;2022-09-13T11:36:21;100758.19;;;22.72;65.36
58534;BME280;44109;52.398;7.024;2022-09-13T11:39:12;100760.97;;;23.32;61.17
58534;BME280;44109;52.398;7.024;2022-09-13T11:41:55;100754.81;;;23.12;62.93
58534;BME280;44109;52.398;7.024;2022-09-13T11:45:00;100756.81;;;22.89;60.22
58534;BME280;44109;52.398;7.024;2022-09-13T11:47:49;100741.59;;;23.09;59.84
58534;BME280;44109;52.398;7.024;2022-09-13T11:50:45;100751.66;;;22.49;58.57
58534;BME280;44109;52.398;7.024;2022-09-13T11:53:45;100740.72;;;22.86;58.71
58534;BME280;44109;52.398;7.024;2022-09-13T11:56:28;100744.00;;;22.97;58.58
58534;BME280;44109;52.398;7.024;2022-09-13T11:59:09;100740.84;;;22.70;60.96
58534;BME280;44109;52.398;7.024;2022-09-13T12:01:49;100728.69;;;23.08;58.30
58534;BME280;44109;52.398;7.024;2022-09-13T12:04:24;100736.09;;;23.27;57.62
58534;BME280;44109;52.398;7.024;2022-09-13T12:07:00;100736.59;;;23.57;58.67
58534;BME280;44109;52.398;7.024;2022-09-13T12:09:33;100721.81;;;24.05;56.54
58534;BME280;44109;52.398;7.024;2022-09-13T12:12:06;100717.38;;;23.51;55.73
58534;BME280;44109;52.398;7.024;2022-09-13T12:14:44;100727.19;;;23.38;57.38
58534;BME280;44109;52.398;7.024;2022-09-13T12:17:24;100713.78;;;23.73;52.34
58534;BME280;44109;52.398;7.024;2022-09-13T12:19:57;100712.03;;;24.07;53.85
58534;BME280;44109;52.398;7.024;2022-09-13T12:22:32;100708.19;;;24.81;53.09
58534;BME280;44109;52.398;7.024;2022-09-13T12:25:03;100711.97;;;24.87;52.28
58534;BME280;44109;52.398;7.024;2022-09-13T12:27:37;100707.41;;;24.22;52.21
58534;BME280;44109;52.398;7.024;2022-09-13T12:30:15;100711.53;;;23.68;54.91
58534;BME280;44109;52.398;7.024;2022-09-13T12:32:46;100712.44;;;23.43;54.46
58534;BME280;44109;52.398;7.024;2022-09-13T12:35:20;100716.34;;;23.36;54.36
58534;BME280;44109;52.398;7.024;2022-09-13T12:41:19;100716.50;;;23.20;51.32
58534;BME280;44109;52.398;7.024;2022-09-13T12:44:28;100718.81;;;23.34;51.53
58534;BME280;44109;52.398;7.024;2022-09-13T12:47:38;100707.19;;;23.76;50.28
58534;BME280;44109;52.398;7.024;2022-09-13T12:53:32;100701.09;;;24.18;49.03
58534;BME280;44109;52.398;7.024;2022-09-13T12:56:40;100702.78;;;23.31;50.07
58534;BME280;44109;52.398;7.024;2022-09-13T12:59:38;100700.91;;;23.81;50.19
58534;BME280;44109;52.398;7.024;2022-09-13T13:02:31;100695.75;;;23.89;52.39
58534;BME280;44109;52.398;7.024;2022-09-13T13:05:05;100705.25;;;23.95;50.81
58534;BME280;44109;52.398;7.024;2022-09-13T13:07:51;100701.28;;;23.92;51.34
58534;BME280;44109;52.398;7.024;2022-09-13T13:10:27;100703.28;;;23.83;49.89
58534;BME280;44109;52.398;7.024;2022-09-13T13:13:09;100695.38;;;23.55;50.19
58534;BME280;44109;52.398;7.024;2022-09-13T13:16:04;100695.81;;;24.38;48.83
58534;BME280;44109;52.398;7.024;2022-09-13T13:18:48;100701.50;;;24.47;47.79
58534;BME280;44109;52.398;7.024;2022-09-13T13:21:34;100698.69;;;24.57;48.75
58534;BME280;44109;52.398;7.024;2022-09-13T13:27:35;100697.28;;;24.21;50.16
58534;BME280;44109;52.398;7.024;2022-09-13T13:33:27;100703.38;;;24.41;49.09
58534;BME280;44109;52.398;7.024;2022-09-13T13:36:20;100702.34;;;24.17;49.00
58534;BME280;44109;52.398;7.024;2022-09-13T13:38:50;100707.50;;;24.49;46.42
58534;BME280;44109;52.398;7.024;2022-09-13T13:41:40;100699.13;;;24.05;47.96
58534;BME280;44109;52.398;7.024;2022-09-13T13:44:55;100705.41;;;23.69;49.66
58534;BME280;44109;52.398;7.024;2022-09-13T13:51:14;100699.69;;;24.81;47.64
58534;BME280;44109;52.398;7.024;2022-09-13T13:53:58;100701.84;;;24.49;45.73
58534;BME280;44109;52.398;7.024;2022-09-13T13:56:50;100703.38;;;24.41;45.65
58534;BME280;44109;52.398;7.024;2022-09-13T13:59:22;100700.88;;;24.52;45.85
58534;BME280;44109;52.398;7.024;2022-09-13T14:01:55;100700.06;;;24.43;46.47
58534;BME280;44109;52.398;7.024;2022-09-13T14:04:59;100693.03;;;23.76;47.20
58534;BME280;44109;52.398;7.024;2022-09-13T14:08:02;100695.38;;;23.55;48.22
58534;BME280;44109;52.398;7.024;2022-09-13T14:10:58;100699.53;;;23.20;48.90
58534;BME280;44109;52.398;7.024;2022-09-13T14:13:44;100688.94;;;23.77;48.79
58534;BME280;44109;52.398;7.024;2022-09-13T14:16:34;100696.81;;;23.82;49.29